sensor_id;sensor_type;location;lat;lon;timestamp;temperature;humidity
68764;DHT22;55754;52.038;5.566;2023-04-01T00:02:06;10.90;99.90
68764;DHT22;55754;52.038;5.566;2023-04-01T00:04:31;10.90;99.90
68764;DHT22;55754;52.038;5.566;2023-04-01T00:06:58;10.90;99.90
68764;DHT22;55754;52.038;5.566;2023-04-01T00:09:23;10.90;99.90
68764;DHT22;55754;52.038;5.566;2023-04-01T00:11:49;10.90;99.90
68764;DHT22;55754;52.038;5.566;2023-04-01T00:14:14;10.90;99.90
68764;DHT22;55754;52.038;5.566;2023-04-01T00:16:40;10.90;99.90
68764;DHT22;55754;52.038;5.566;2023-04-01T00:19:06;10.90;99.90
68764;DHT22;55754;52.038;5.566;2023-04-01T00:21:31;10.90;99.90
68764;DHT22;55754;52.038;5.566;2023-04-01T00:23:57;10.90;99.90
68764;DHT22;55754;52.038;5.566;2023-04-01T00:26:23;10.90;99.90
68764;DHT22;55754;52.038;5.566;2023-04-01T00:28:50;10.90;99.90
68764;DHT22;55754;52.038;5.566;2023-04-01T00:31:16;10.90;99.90
68764;DHT22;55754;52.038;5.566;2023-04-01T00:33:42;10.90;99.90
68764;DHT22;55754;52.038;5.566;2023-04-01T00:36:13;10.90;99.90
68764;DHT22;55754;52.038;5.566;2023-04-01T00:38:40;10.90;99.90
68764;DHT22;55754;52.038;5.566;2023-04-01T00:41:17;10.90;99.90
68764;DHT22;55754;52.038;5.566;2023-04-01T00:43:45;11.00;99.90
68764;DHT22;55754;52.038;5.566;2023-04-01T00:46:10;10.90;99.90
68764;DHT22;55754;52.038;5.566;2023-04-01T00:48:38;10.90;99.90
68764;DHT22;55754;52.038;5.566;2023-04-01T00:51:08;10.90;99.90
68764;DHT22;55754;52.038;5.566;2023-04-01T00:53:41;10.90;99.90
68764;DHT22;55754;52.038;5.566;2023-04-01T00:56:14;10.90;99.90
68764;DHT22;55754;52.038;5.566;2023-04-01T00:58:47;10.90;99.90
68764;DHT22;55754;52.038;5.566;2023-04-01T01:01:14;10.90;99.90
68764;DHT22;55754;52.038;5.566;2023-04-01T01:03:39;10.90;99.90
68764;DHT22;55754;52.038;5.566;2023-04-01T01:06:09;10.90;99.90
68764;DHT22;55754;52.038;5.566;2023-04-01T01:11:38;10.90;99.90
68764;DHT22;55754;52.038;5.566;2023-04-01T01:14:34;10.90;99.90
68764;DHT22;55754;52.038;5.566;2023-04-01T01:20:18;10.90;99.90
68764;DHT22;55754;52.038;5.566;2023-04-01T01:31:23;10.80;99.90
68764;DHT22;55754;52.038;5.566;2023-04-01T01:36:38;10.70;99.90
68764;DHT22;55754;52.038;5.566;2023-04-01T01:39:07;10.80;99.90
68764;DHT22;55754;52.038;5.566;2023-04-01T01:41:35;10.70;99.90
68764;DHT22;55754;52.038;5.566;2023-04-01T01:44:04;10.70;99.90
68764;DHT22;55754;52.038;5.566;2023-04-01T01:46:31;10.70;99.90
68764;DHT22;55754;52.038;5.566;2023-04-01T01:48:57;10.70;99.90
68764;DHT22;55754;52.038;5.566;2023-04-01T01:51:26;10.70;99.90
68764;DHT22;55754;52.038;5.566;2023-04-01T01:53:53;10.70;99.90
68764;DHT22;55754;52.038;5.566;2023-04-01T01:56:21;10.70;99.90
68764;DHT22;55754;52.038;5.566;2023-04-01T01:58:49;10.70;99.90
68764;DHT22;55754;52.038;5.566;2023-04-01T02:01:29;10.60;99.90
68764;DHT22;55754;52.038;5.566;2023-04-01T02:03:57;10.60;99.90
68764;DHT22;55754;52.038;5.566;2023-04-01T02:06:26;10.60;99.90
68764;DHT22;55754;52.038;5.566;2023-04-01T02:09:02;10.60;99.90
68764;DHT22;55754;52.038;5.566;2023-04-01T02:11:51;10.60;99.90
68764;DHT22;55754;52.038;5.566;2023-04-01T02:15:01;10.60;99.90
68764;DHT22;55754;52.038;5.566;2023-04-01T02:17:10;10.50;99.90
68764;DHT22;55754;52.038;5.566;2023-04-01T02:19:52;10.60;99.90
68764;DHT22;55754;52.038;5.566;2023-04-01T02:22:21;10.50;99.90
68764;DHT22;55754;52.038;5.566;2023-04-01T02:24:54;10.50;99.90
68764;DHT22;55754;52.038;5.566;2023-04-01T02:27:21;10.60;99.90
68764;DHT22;55754;52.038;5.566;2023-04-01T02:29:47;10.50;99.90
68764;DHT22;55754;52.038;5.566;2023-04-01T02:32:13;10.50;99.90
68764;DHT22;55754;52.038;5.566;2023-04-01T02:34:39;10.50;99.90
68764;DHT22;55754;52.038;5.566;2023-04-01T02:37:05;10.50;99.90
68764;DHT22;55754;52.038;5.566;2023-04-01T02:39:31;10.50;99.90
68764;DHT22;55754;52.038;5.566;2023-04-01T02:41:57;10.40;99.90
68764;DHT22;55754;52.038;5.566;2023-04-01T02:44:22;11.00;99.90
68764;DHT22;55754;52.038;5.566;2023-04-01T02:46:51;10.40;99.90
68764;DHT22;55754;52.038;5.566;2023-04-01T02:49:16;10.40;99.90
68764;DHT22;55754;52.038;5.566;2023-04-01T02:51:42;10.40;99.90
68764;DHT22;55754;52.038;5.566;2023-04-01T02:54:07;10.40;99.90
68764;DHT22;55754;52.038;5.566;2023-04-01T02:56:36;10.40;99.90
68764;DHT22;55754;52.038;5.566;2023-04-01T02:59:01;10.40;99.90
68764;DHT22;55754;52.038;5.566;2023-04-01T03:01:27;10.40;99.90
68764;DHT22;55754;52.038;5.566;2023-04-01T03:03:52;10.50;99.90
68764;DHT22;55754;52.038;5.566;2023-04-01T03:06:18;10.40;99.90
68764;DHT22;55754;52.038;5.566;2023-04-01T03:08:43;10.40;99.90
68764;DHT22;55754;52.038;5.566;2023-04-01T03:11:10;10.40;99.90
68764;DHT22;55754;52.038;5.566;2023-04-01T03:13:35;10.50;99.90
68764;DHT22;55754;52.038;5.566;2023-04-01T03:16:01;10.40;99.90
68764;DHT22;55754;52.038;5.566;2023-04-01T03:18:27;10.40;99.90
68764;DHT22;55754;52.038;5.566;2023-04-01T03:20:52;10.40;99.90
68764;DHT22;55754;52.038;5.566;2023-04-01T03:23:18;10.40;99.90
68764;DHT22;55754;52.038;5.566;2023-04-01T03:25:46;10.40;99.90
68764;DHT22;55754;52.038;5.566;2023-04-01T03:28:12;10.40;99.90
68764;DHT22;55754;52.038;5.566;2023-04-01T03:30:38;10.40;99.90
68764;DHT22;55754;52.038;5.566;2023-04-01T03:33:04;10.40;99.90
68764;DHT22;55754;52.038;5.566;2023-04-01T03:35:30;10.40;99.90
68764;DHT22;55754;52.038;5.566;2023-04-01T03:37:56;10.40;99.90
68764;DHT22;55754;52.038;5.566;2023-04-01T03:40:22;10.40;99.90
68764;DHT22;55754;52.038;5.566;2023-04-01T03:42:48;10.40;99.90
68764;DHT22;55754;52.038;5.566;2023-04-01T03:45:14;10.40;99.90
68764;DHT22;55754;52.038;5.566;2023-04-01T03:47:40;10.40;99.90
68764;DHT22;55754;52.038;5.566;2023-04-01T03:50:06;10.40;99.90
68764;DHT22;55754;52.038;5.566;2023-04-01T03:52:32;10.40;99.90
68764;DHT22;55754;52.038;5.566;2023-04-01T03:54:58;10.40;99.90
68764;DHT22;55754;52.038;5.566;2023-04-01T03:57:24;10.40;99.90
68764;DHT22;55754;52.038;5.566;2023-04-01T03:59:50;10.30;99.90
68764;DHT22;55754;52.038;5.566;2023-04-01T04:02:15;10.30;99.90
68764;DHT22;55754;52.038;5.566;2023-04-01T04:04:41;10.30;99.90
68764;DHT22;55754;52.038;5.566;2023-04-01T04:07:07;10.30;99.90
68764;DHT22;55754;52.038;5.566;2023-04-01T04:09:35;10.30;99.90
68764;DHT22;55754;52.038;5.566;2023-04-01T04:12:01;10.90;99.90
68764;DHT22;55754;52.038;5.566;2023-04-01T04:14:27;10.30;99.90
68764;DHT22;55754;52.038;5.566;2023-04-01T04:16:56;10.40;99.90
68764;DHT22;55754;52.038;5.566;2023-04-01T04:19:24;10.40;99.90
68764;DHT22;55754;52.038;5.566;2023-04-01T04:21:50;10.40;99.90
68764;DHT22;55754;52.038;5.566;2023-04-01T04:24:15;10.40;99.90
68764;DHT22;55754;52.038;5.566;2023-04-01T04:26:41;10.40;99.90
68764;DHT22;55754;52.038;5.566;2023-04-01T04:29:07;10.40;99.90
68764;DHT22;55754;52.038;5.566;2023-04-01T04:31:32;10.40;99.90
68764;DHT22;55754;52.038;5.566;2023-04-01T04:33:59;10.40;99.90
68764;DHT22;55754;52.038;5.566;2023-04-01T04:36:29;10.50;99.90
68764;DHT22;55754;52.038;5.566;2023-04-01T04:38:54;10.50;99.90
68764;DHT22;55754;52.038;5.566;2023-04-01T04:41:20;10.50;99.90
68764;DHT22;55754;52.038;5.566;2023-04-01T04:43:55;10.50;99.90
68764;DHT22;55754;52.038;5.566;2023-04-01T04:46:21;10.50;99.90
68764;DHT22;55754;52.038;5.566;2023-04-01T04:48:48;10.50;99.90
68764;DHT22;55754;52.038;5.566;2023-04-01T04:51:17;10.50;99.90
68764;DHT22;55754;52.038;5.566;2023-04-01T04:53:43;10.60;99.90
68764;DHT22;55754;52.038;5.566;2023-04-01T04:56:09;10.50;99.90
68764;DHT22;55754;52.038;5.566;2023-04-01T04:58:35;10.50;99.90
68764;DHT22;55754;52.038;5.566;2023-04-01T05:01:09;10.60;99.90
68764;DHT22;55754;52.038;5.566;2023-04-01T05:03:35;10.60;99.90
68764;DHT22;55754;52.038;5.566;2023-04-01T05:06:01;10.60;99.90
68764;DHT22;55754;52.038;5.566;2023-04-01T05:08:27;10.60;99.90
68764;DHT22;55754;52.038;5.566;2023-04-01T05:10:53;10.60;99.90
68764;DHT22;55754;52.038;5.566;2023-04-01T05:13:21;10.60;99.90
68764;DHT22;55754;52.038;5.566;2023-04-01T05:15:47;10.70;99.90
68764;DHT22;55754;52.038;5.566;2023-04-01T05:18:12;10.70;99.90
68764;DHT22;55754;52.038;5.566;2023-04-01T05:20:38;10.70;99.90
68764;DHT22;55754;52.038;5.566;2023-04-01T05:23:04;10.80;99.90
68764;DHT22;55754;52.038;5.566;2023-04-01T05:25:29;10.80;99.90
68764;DHT22;55754;52.038;5.566;2023-04-01T05:27:55;10.80;99.90
68764;DHT22;55754;52.038;5.566;2023-04-01T05:30:20;10.80;99.90
68764;DHT22;55754;52.038;5.566;2023-04-01T05:32:46;10.70;99.90
68764;DHT22;55754;52.038;5.566;2023-04-01T05:35:11;10.80;99.90
68764;DHT22;55754;52.038;5.566;2023-04-01T05:37:37;10.80;99.90
68764;DHT22;55754;52.038;5.566;2023-04-01T05:40:03;10.80;99.90
68764;DHT22;55754;52.038;5.566;2023-04-01T05:42:29;10.80;99.90
68764;DHT22;55754;52.038;5.566;2023-04-01T05:44:55;10.80;99.90
68764;DHT22;55754;52.038;5.566;2023-04-01T05:47:21;10.80;99.90
68764;DHT22;55754;52.038;5.566;2023-04-01T05:49:47;10.80;99.90
68764;DHT22;55754;52.038;5.566;2023-04-01T05:52:12;10.80;99.90
68764;DHT22;55754;52.038;5.566;2023-04-01T05:54:38;10.90;99.90
68764;DHT22;55754;52.038;5.566;2023-04-01T05:57:03;10.80;99.90
68764;DHT22;55754;52.038;5.566;2023-04-01T05:59:29;10.90;99.90
68764;DHT22;55754;52.038;5.566;2023-04-01T06:01:56;10.90;99.90
68764;DHT22;55754;52.038;5.566;2023-04-01T06:04:22;10.80;99.90
68764;DHT22;55754;52.038;5.566;2023-04-01T06:06:48;10.90;99.90
68764;DHT22;55754;52.038;5.566;2023-04-01T06:09:17;10.90;99.90
68764;DHT22;55754;52.038;5.566;2023-04-01T06:19:46;10.90;99.90
68764;DHT22;55754;52.038;5.566;2023-04-01T06:22:25;10.90;99.90
68764;DHT22;55754;52.038;5.566;2023-04-01T06:31:05;11.00;99.90
68764;DHT22;55754;52.038;5.566;2023-04-01T06:36:31;11.00;99.90
68764;DHT22;55754;52.038;5.566;2023-04-01T06:50:51;11.00;99.90
68764;DHT22;55754;52.038;5.566;2023-04-01T06:56:17;11.10;99.90
68764;DHT22;55754;52.038;5.566;2023-04-01T06:58:50;11.10;99.90
68764;DHT22;55754;52.038;5.566;2023-04-01T07:01:26;11.10;99.90
68764;DHT22;55754;52.038;5.566;2023-04-01T07:04:00;11.10;99.90
68764;DHT22;55754;52.038;5.566;2023-04-01T07:06:39;11.10;99.90
68764;DHT22;55754;52.038;5.566;2023-04-01T07:09:14;11.10;99.90
68764;DHT22;55754;52.038;5.566;2023-04-01T07:11:42;11.10;99.90
68764;DHT22;55754;52.038;5.566;2023-04-01T07:14:19;11.10;99.90
68764;DHT22;55754;52.038;5.566;2023-04-01T07:17:06;11.10;99.90
68764;DHT22;55754;52.038;5.566;2023-04-01T07:22:29;11.20;99.90
68764;DHT22;55754;52.038;5.566;2023-04-01T07:24:59;11.20;99.90
68764;DHT22;55754;52.038;5.566;2023-04-01T07:27:26;11.10;99.90
68764;DHT22;55754;52.038;5.566;2023-04-01T07:29:52;11.20;99.90
68764;DHT22;55754;52.038;5.566;2023-04-01T07:35:18;11.20;99.90
68764;DHT22;55754;52.038;5.566;2023-04-01T07:38:13;11.20;99.90
68764;DHT22;55754;52.038;5.566;2023-04-01T07:46:45;11.20;99.90
68764;DHT22;55754;52.038;5.566;2023-04-01T07:49:37;11.20;99.90
68764;DHT22;55754;52.038;5.566;2023-04-01T07:52:13;11.20;99.90
68764;DHT22;55754;52.038;5.566;2023-04-01T07:55:04;11.20;99.90
68764;DHT22;55754;52.038;5.566;2023-04-01T08:00:27;11.30;99.90
68764;DHT22;55754;52.038;5.566;2023-04-01T08:03:21;11.30;99.90
68764;DHT22;55754;52.038;5.566;2023-04-01T08:06:00;11.30;99.90
68764;DHT22;55754;52.038;5.566;2023-04-01T08:16:52;11.30;99.90
68764;DHT22;55754;52.038;5.566;2023-04-01T08:22:16;11.30;99.90
68764;DHT22;55754;52.038;5.566;2023-04-01T08:24:46;11.40;99.90
68764;DHT22;55754;52.038;5.566;2023-04-01T08:32:43;11.40;99.90
68764;DHT22;55754;52.038;5.566;2023-04-01T08:35:29;11.40;99.90
68764;DHT22;55754;52.038;5.566;2023-04-01T08:37:59;11.50;99.90
68764;DHT22;55754;52.038;5.566;2023-04-01T08:41:06;11.50;99.90
68764;DHT22;55754;52.038;5.566;2023-04-01T09:00:53;11.50;99.90
68764;DHT22;55754;52.038;5.566;2023-04-01T09:03:59;11.50;99.90
68764;DHT22;55754;52.038;5.566;2023-04-01T09:09:37;11.50;99.90
68764;DHT22;55754;52.038;5.566;2023-04-01T09:12:35;11.50;99.90
68764;DHT22;55754;52.038;5.566;2023-04-01T09:15:36;11.60;99.90
68764;DHT22;55754;52.038;5.566;2023-04-01T09:18:21;11.60;99.90
68764;DHT22;55754;52.038;5.566;2023-04-01T09:21:35;11.60;99.90
68764;DHT22;55754;52.038;5.566;2023-04-01T09:27:13;11.60;99.90
68764;DHT22;55754;52.038;5.566;2023-04-01T09:30:22;11.60;99.90
68764;DHT22;55754;52.038;5.566;2023-04-01T09:33:34;11.60;99.90
68764;DHT22;55754;52.038;5.566;2023-04-01T09:36:12;11.60;99.90
68764;DHT22;55754;52.038;5.566;2023-04-01T09:41:27;11.70;99.90
68764;DHT22;55754;52.038;5.566;2023-04-01T09:52:38;11.90;99.90
68764;DHT22;55754;52.038;5.566;2023-04-01T10:12:41;12.60;99.90
68764;DHT22;55754;52.038;5.566;2023-04-01T10:36:00;13.50;99.90
68764;DHT22;55754;52.038;5.566;2023-04-01T10:47:10;13.60;99.90
68764;DHT22;55754;52.038;5.566;2023-04-01T10:52:39;13.60;99.90
68764;DHT22;55754;52.038;5.566;2023-04-01T11:06:33;13.30;99.90
68764;DHT22;55754;52.038;5.566;2023-04-01T11:09:11;13.20;99.90
68764;DHT22;55754;52.038;5.566;2023-04-01T11:17:57;13.20;99.90
68764;DHT22;55754;52.038;5.566;2023-04-01T11:20:35;13.10;99.90
68764;DHT22;55754;52.038;5.566;2023-04-01T11:23:17;13.20;99.90
68764;DHT22;55754;52.038;5.566;2023-04-01T11:26:00;13.20;99.90
68764;DHT22;55754;52.038;5.566;2023-04-01T11:34:51;13.40;99.90
68764;DHT22;55754;52.038;5.566;2023-04-01T11:37:36;13.40;99.90
68764;DHT22;55754;52.038;5.566;2023-04-01T11:42:49;13.00;99.90
68764;DHT22;55754;52.038;5.566;2023-04-01T11:54:19;12.80;99.90
68764;DHT22;55754;52.038;5.566;2023-04-01T12:02:42;12.80;99.90
68764;DHT22;55754;52.038;5.566;2023-04-01T12:05:24;13.20;99.90
68764;DHT22;55754;52.038;5.566;2023-04-01T12:07:55;12.80;99.90
68764;DHT22;55754;52.038;5.566;2023-04-01T12:10:37;12.80;99.90
68764;DHT22;55754;52.038;5.566;2023-04-01T12:13:26;12.90;99.90
68764;DHT22;55754;52.038;5.566;2023-04-01T12:16:19;12.80;99.90
68764;DHT22;55754;52.038;5.566;2023-04-01T12:21:49;12.90;99.90
68764;DHT22;55754;52.038;5.566;2023-04-01T12:24:45;12.90;99.90
68764;DHT22;55754;52.038;5.566;2023-04-01T12:27:38;13.00;99.90
68764;DHT22;55754;52.038;5.566;2023-04-01T12:32:49;13.00;99.90
68764;DHT22;55754;52.038;5.566;2023-04-01T12:35:45;13.00;99.90
68764;DHT22;55754;52.038;5.566;2023-04-01T12:49:45;13.30;99.90
68764;DHT22;55754;52.038;5.566;2023-04-01T13:01:07;13.70;99.90
68764;DHT22;55754;52.038;5.566;2023-04-01T13:17:58;13.40;99.00
68764;DHT22;55754;52.038;5.566;2023-04-01T13:26:28;13.20;99.90
68764;DHT22;55754;52.038;5.566;2023-04-01T13:29:25;13.30;99.90
68764;DHT22;55754;52.038;5.566;2023-04-01T13:32:10;13.30;99.90
68764;DHT22;55754;52.038;5.566;2023-04-01T13:37:44;13.20;99.90
68764;DHT22;55754;52.038;5.566;2023-04-01T13:43:43;13.20;99.90
68764;DHT22;55754;52.038;5.566;2023-04-01T13:49:30;13.10;99.90
68764;DHT22;55754;52.038;5.566;2023-04-01T13:52:24;13.10;99.90
68764;DHT22;55754;52.038;5.566;2023-04-01T13:58:04;13.00;99.90
68764;DHT22;55754;52.038;5.566;2023-04-01T14:03:54;12.90;99.90
68764;DHT22;55754;52.038;5.566;2023-04-01T14:06:34;12.90;99.90
68764;DHT22;55754;52.038;5.566;2023-04-01T14:12:39;12.70;99.90
68764;DHT22;55754;52.038;5.566;2023-04-01T14:15:50;12.60;99.90
68764;DHT22;55754;52.038;5.566;2023-04-01T14:20:45;12.70;99.90
68764;DHT22;55754;52.038;5.566;2023-04-01T14:34:41;12.60;99.90
68764;DHT22;55754;52.038;5.566;2023-04-01T14:37:19;12.60;99.90
68764;DHT22;55754;52.038;5.566;2023-04-01T14:48:30;12.30;99.90
68764;DHT22;55754;52.038;5.566;2023-04-01T14:51:09;12.20;99.90
68764;DHT22;55754;52.038;5.566;2023-04-01T14:54:30;12.20;99.90
68764;DHT22;55754;52.038;5.566;2023-04-01T14:56:38;12.10;99.90
68764;DHT22;55754;52.038;5.566;2023-04-01T14:59:30;12.10;99.90
68764;DHT22;55754;52.038;5.566;2023-04-01T15:10:01;11.90;99.90
68764;DHT22;55754;52.038;5.566;2023-04-01T15:13:03;11.90;99.90
68764;DHT22;55754;52.038;5.566;2023-04-01T15:15:55;11.90;99.90
68764;DHT22;55754;52.038;5.566;2023-04-01T15:18:34;11.90;99.90
68764;DHT22;55754;52.038;5.566;2023-04-01T15:21:30;11.90;99.90
68764;DHT22;55754;52.038;5.566;2023-04-01T15:24:07;11.90;99.90
68764;DHT22;55754;52.038;5.566;2023-04-01T15:31:56;11.90;99.90
68764;DHT22;55754;52.038;5.566;2023-04-01T15:37:18;12.00;99.90
68764;DHT22;55754;52.038;5.566;2023-04-01T15:40:00;12.00;99.90
68764;DHT22;55754;52.038;5.566;2023-04-01T15:45:36;12.00;99.90
68764;DHT22;55754;52.038;5.566;2023-04-01T15:48:26;12.00;99.90
68764;DHT22;55754;52.038;5.566;2023-04-01T15:59:42;11.90;99.90
68764;DHT22;55754;52.038;5.566;2023-04-01T16:05:13;11.80;99.90
68764;DHT22;55754;52.038;5.566;2023-04-01T16:08:09;11.80;99.90
68764;DHT22;55754;52.038;5.566;2023-04-01T16:14:21;11.70;99.90
68764;DHT22;55754;52.038;5.566;2023-04-01T16:17:10;11.70;99.90
68764;DHT22;55754;52.038;5.566;2023-04-01T16:19:51;11.70;99.90
68764;DHT22;55754;52.038;5.566;2023-04-01T16:37:53;11.50;99.90
68764;DHT22;55754;52.038;5.566;2023-04-01T16:40:40;11.50;99.90
68764;DHT22;55754;52.038;5.566;2023-04-01T16:46:26;11.40;99.90
68764;DHT22;55754;52.038;5.566;2023-04-01T16:51:52;11.40;99.90
68764;DHT22;55754;52.038;5.566;2023-04-01T16:57:30;11.30;99.90
68764;DHT22;55754;52.038;5.566;2023-04-01T17:00:16;11.30;99.90
68764;DHT22;55754;52.038;5.566;2023-04-01T17:20:36;11.00;99.90
68764;DHT22;55754;52.038;5.566;2023-04-01T17:23:14;10.90;99.90
68764;DHT22;55754;52.038;5.566;2023-04-01T17:28:57;10.90;99.90
68764;DHT22;55754;52.038;5.566;2023-04-01T17:34:15;10.90;99.90
68764;DHT22;55754;52.038;5.566;2023-04-01T17:50:24;10.80;99.90
68764;DHT22;55754;52.038;5.566;2023-04-01T17:56:04;10.70;99.90
68764;DHT22;55754;52.038;5.566;2023-04-01T18:26:02;10.20;99.90
68764;DHT22;55754;52.038;5.566;2023-04-01T18:28:43;10.20;99.90
68764;DHT22;55754;52.038;5.566;2023-04-01T18:31:15;10.20;99.90
68764;DHT22;55754;52.038;5.566;2023-04-01T18:39:23;10.10;99.90
68764;DHT22;55754;52.038;5.566;2023-04-01T18:44:55;10.10;99.90
68764;DHT22;55754;52.038;5.566;2023-04-01T18:52:48;10.00;99.90
68764;DHT22;55754;52.038;5.566;2023-04-01T18:55:22;10.00;99.90
68764;DHT22;55754;52.038;5.566;2023-04-01T18:57:53;10.00;99.90
68764;DHT22;55754;52.038;5.566;2023-04-01T19:00:21;9.90;99.90
68764;DHT22;55754;52.038;5.566;2023-04-01T19:05:38;9.90;99.90
68764;DHT22;55754;52.038;5.566;2023-04-01T19:08:33;10.00;99.90
68764;DHT22;55754;52.038;5.566;2023-04-01T19:11:33;9.90;99.90
68764;DHT22;55754;52.038;5.566;2023-04-01T19:17:00;9.90;99.90
68764;DHT22;55754;52.038;5.566;2023-04-01T19:19:30;9.80;99.90
68764;DHT22;55754;52.038;5.566;2023-04-01T19:22:21;9.80;99.90
68764;DHT22;55754;52.038;5.566;2023-04-01T19:27:53;9.70;99.90
68764;DHT22;55754;52.038;5.566;2023-04-01T19:38:39;9.70;99.90
68764;DHT22;55754;52.038;5.566;2023-04-01T19:41:15;9.60;99.90
68764;DHT22;55754;52.038;5.566;2023-04-01T19:52:01;9.60;99.90
68764;DHT22;55754;52.038;5.566;2023-04-01T20:11:14;9.30;99.90
68764;DHT22;55754;52.038;5.566;2023-04-01T20:14:24;9.20;99.90
68764;DHT22;55754;52.038;5.566;2023-04-01T20:20:24;9.10;99.90
68764;DHT22;55754;52.038;5.566;2023-04-01T20:28:09;9.00;99.90
68764;DHT22;55754;52.038;5.566;2023-04-01T20:33:36;9.00;99.90
68764;DHT22;55754;52.038;5.566;2023-04-01T20:41:32;8.90;99.90
68764;DHT22;55754;52.038;5.566;2023-04-01T20:50:00;8.80;99.90
68764;DHT22;55754;52.038;5.566;2023-04-01T20:52:37;8.80;99.90
68764;DHT22;55754;52.038;5.566;2023-04-01T21:00:40;8.80;99.90
68764;DHT22;55754;52.038;5.566;2023-04-01T21:09:02;8.80;99.90
68764;DHT22;55754;52.038;5.566;2023-04-01T21:20:29;8.70;99.90
68764;DHT22;55754;52.038;5.566;2023-04-01T21:39:56;8.50;99.90
68764;DHT22;55754;52.038;5.566;2023-04-01T21:42:37;8.50;99.90
68764;DHT22;55754;52.038;5.566;2023-04-01T22:05:10;8.30;99.90
68764;DHT22;55754;52.038;5.566;2023-04-01T22:12:56;8.30;99.90
68764;DHT22;55754;52.038;5.566;2023-04-01T22:18:50;8.20;99.90
68764;DHT22;55754;52.038;5.566;2023-04-01T22:24:26;8.20;99.90
68764;DHT22;55754;52.038;5.566;2023-04-01T22:27:06;8.20;99.90
68764;DHT22;55754;52.038;5.566;2023-04-01T22:29:42;8.20;99.90
68764;DHT22;55754;52.038;5.566;2023-04-01T22:32:29;8.10;99.90
68764;DHT22;55754;52.038;5.566;2023-04-01T22:40:34;8.10;99.90
68764;DHT22;55754;52.038;5.566;2023-04-01T22:43:19;8.00;99.90
68764;DHT22;55754;52.038;5.566;2023-04-01T22:46:02;8.00;99.90
68764;DHT22;55754;52.038;5.566;2023-04-01T22:48:54;7.90;99.90
68764;DHT22;55754;52.038;5.566;2023-04-01T22:56:57;7.80;99.90
68764;DHT22;55754;52.038;5.566;2023-04-01T23:00:01;7.80;99.90
68764;DHT22;55754;52.038;5.566;2023-04-01T23:05:20;7.70;99.90
68764;DHT22;55754;52.038;5.566;2023-04-01T23:08:07;7.70;99.90
68764;DHT22;55754;52.038;5.566;2023-04-01T23:10:49;7.70;99.90
68764;DHT22;55754;52.038;5.566;2023-04-01T23:13:41;7.70;99.90
68764;DHT22;55754;52.038;5.566;2023-04-01T23:16:09;7.70;99.90
68764;DHT22;55754;52.038;5.566;2023-04-01T23:18:51;7.70;99.90
68764;DHT22;55754;52.038;5.566;2023-04-01T23:21:46;7.70;99.90
68764;DHT22;55754;52.038;5.566;2023-04-01T23:24:25;7.60;99.90
68764;DHT22;55754;52.038;5.566;2023-04-01T23:27:08;7.70;99.90
68764;DHT22;55754;52.038;5.566;2023-04-01T23:29:37;7.70;99.90
68764;DHT22;55754;52.038;5.566;2023-04-01T23:32:10;7.60;99.90
68764;DHT22;55754;52.038;5.566;2023-04-01T23:34:38;8.00;99.90
68764;DHT22;55754;52.038;5.566;2023-04-01T23:37:09;7.70;99.90
68764;DHT22;55754;52.038;5.566;2023-04-01T23:39:41;7.70;99.90
68764;DHT22;55754;52.038;5.566;2023-04-01T23:42:19;7.70;99.90
68764;DHT22;55754;52.038;5.566;2023-04-01T23:44:48;7.60;99.90
68764;DHT22;55754;52.038;5.566;2023-04-01T23:47:19;7.60;99.90
68764;DHT22;55754;52.038;5.566;2023-04-01T23:49:48;7.60;99.90
68764;DHT22;55754;52.038;5.566;2023-04-01T23:52:24;7.60;99.90
68764;DHT22;55754;52.038;5.566;2023-04-01T23:55:08;7.60;99.90
68764;DHT22;55754;52.038;5.566;2023-04-01T23:57:37;7.50;99.90
